sensor_id;sensor_type;location;lat;lon;timestamp;P1;durP1;ratioP1;P2;durP2;ratioP2
24873;SDS011;12945;42.648;23.370;2023-06-04T00:01:00;9.23;;;5.85;;
24873;SDS011;12945;42.648;23.370;2023-06-04T00:03:26;9.50;;;5.57;;
24873;SDS011;12945;42.648;23.370;2023-06-04T00:08:36;6.15;;;4.60;;
24873;SDS011;12945;42.648;23.370;2023-06-04T00:11:06;8.43;;;5.25;;
24873;SDS011;12945;42.648;23.370;2023-06-04T00:13:31;6.13;;;4.27;;
24873;SDS011;12945;42.648;23.370;2023-06-04T00:16:04;10.85;;;6.70;;
24873;SDS011;12945;42.648;23.370;2023-06-04T00:18:29;10.85;;;6.43;;
24873;SDS011;12945;42.648;23.370;2023-06-04T00:20:56;8.90;;;6.90;;
24873;SDS011;12945;42.648;23.370;2023-06-04T00:23:21;10.80;;;6.72;;
24873;SDS011;12945;42.648;23.370;2023-06-04T00:25:49;9.80;;;6.00;;
24873;SDS011;12945;42.648;23.370;2023-06-04T00:28:14;11.27;;;6.15;;
24873;SDS011;12945;42.648;23.370;2023-06-04T00:30:42;10.13;;;7.32;;
24873;SDS011;12945;42.648;23.370;2023-06-04T00:33:07;6.18;;;5.13;;
24873;SDS011;12945;42.648;23.370;2023-06-04T00:35:33;7.50;;;5.22;;
24873;SDS011;12945;42.648;23.370;2023-06-04T00:37:59;8.27;;;5.85;;
24873;SDS011;12945;42.648;23.370;2023-06-04T00:40:27;10.20;;;6.03;;
24873;SDS011;12945;42.648;23.370;2023-06-04T00:42:53;8.55;;;5.70;;
24873;SDS011;12945;42.648;23.370;2023-06-04T00:45:23;8.43;;;5.28;;
24873;SDS011;12945;42.648;23.370;2023-06-04T00:47:51;7.90;;;5.00;;
24873;SDS011;12945;42.648;23.370;2023-06-04T00:52:46;5.97;;;4.27;;
24873;SDS011;12945;42.648;23.370;2023-06-04T00:55:11;9.30;;;5.22;;
24873;SDS011;12945;42.648;23.370;2023-06-04T00:57:37;10.20;;;6.65;;
24873;SDS011;12945;42.648;23.370;2023-06-04T01:00:05;7.00;;;6.15;;
24873;SDS011;12945;42.648;23.370;2023-06-04T01:02:32;9.82;;;7.57;;
24873;SDS011;12945;42.648;23.370;2023-06-04T01:05:03;10.43;;;7.35;;
24873;SDS011;12945;42.648;23.370;2023-06-04T01:07:35;10.57;;;8.80;;
24873;SDS011;12945;42.648;23.370;2023-06-04T01:12:29;10.65;;;8.55;;
24873;SDS011;12945;42.648;23.370;2023-06-04T01:17:29;9.93;;;7.72;;
24873;SDS011;12945;42.648;23.370;2023-06-04T01:23:22;14.98;;;11.20;;
24873;SDS011;12945;42.648;23.370;2023-06-04T01:25:52;15.23;;;10.85;;
24873;SDS011;12945;42.648;23.370;2023-06-04T01:28:18;15.10;;;11.43;;
24873;SDS011;12945;42.648;23.370;2023-06-04T01:30:48;14.98;;;10.57;;
24873;SDS011;12945;42.648;23.370;2023-06-04T01:33:16;17.45;;;11.27;;
24873;SDS011;12945;42.648;23.370;2023-06-04T01:35:45;16.58;;;10.70;;
24873;SDS011;12945;42.648;23.370;2023-06-04T01:38:10;17.13;;;10.10;;
24873;SDS011;12945;42.648;23.370;2023-06-04T01:40:36;12.55;;;9.25;;
24873;SDS011;12945;42.648;23.370;2023-06-04T01:43:01;10.40;;;7.95;;
24873;SDS011;12945;42.648;23.370;2023-06-04T01:45:28;7.93;;;6.63;;
24873;SDS011;12945;42.648;23.370;2023-06-04T01:47:54;8.68;;;6.22;;
24873;SDS011;12945;42.648;23.370;2023-06-04T01:50:19;9.75;;;6.70;;
24873;SDS011;12945;42.648;23.370;2023-06-04T01:52:45;9.10;;;6.22;;
24873;SDS011;12945;42.648;23.370;2023-06-04T01:55:12;8.45;;;5.60;;
24873;SDS011;12945;42.648;23.370;2023-06-04T01:57:38;6.53;;;3.83;;
24873;SDS011;12945;42.648;23.370;2023-06-04T02:00:06;5.80;;;4.05;;
24873;SDS011;12945;42.648;23.370;2023-06-04T02:02:38;6.45;;;3.90;;
24873;SDS011;12945;42.648;23.370;2023-06-04T02:05:07;3.97;;;3.50;;
24873;SDS011;12945;42.648;23.370;2023-06-04T02:07:33;4.03;;;3.63;;
24873;SDS011;12945;42.648;23.370;2023-06-04T02:12:31;7.68;;;3.60;;
24873;SDS011;12945;42.648;23.370;2023-06-04T02:14:57;4.68;;;3.80;;
24873;SDS011;12945;42.648;23.370;2023-06-04T02:17:22;5.95;;;3.83;;
24873;SDS011;12945;42.648;23.370;2023-06-04T02:19:47;6.00;;;3.50;;
24873;SDS011;12945;42.648;23.370;2023-06-04T02:22:19;5.90;;;4.03;;
24873;SDS011;12945;42.648;23.370;2023-06-04T02:24:45;5.75;;;4.18;;
24873;SDS011;12945;42.648;23.370;2023-06-04T02:27:13;4.93;;;4.00;;
24873;SDS011;12945;42.648;23.370;2023-06-04T02:29:39;4.80;;;3.90;;
24873;SDS011;12945;42.648;23.370;2023-06-04T02:32:11;6.53;;;4.57;;
24873;SDS011;12945;42.648;23.370;2023-06-04T02:34:36;6.20;;;3.85;;
24873;SDS011;12945;42.648;23.370;2023-06-04T02:37:04;6.97;;;4.47;;
24873;SDS011;12945;42.648;23.370;2023-06-04T02:39:29;8.25;;;4.28;;
24873;SDS011;12945;42.648;23.370;2023-06-04T02:41:55;6.43;;;4.30;;
24873;SDS011;12945;42.648;23.370;2023-06-04T02:44:20;6.80;;;4.20;;
24873;SDS011;12945;42.648;23.370;2023-06-04T02:46:46;9.48;;;4.20;;
24873;SDS011;12945;42.648;23.370;2023-06-04T02:49:11;8.43;;;4.35;;
24873;SDS011;12945;42.648;23.370;2023-06-04T02:51:42;7.60;;;3.70;;
24873;SDS011;12945;42.648;23.370;2023-06-04T02:54:07;6.30;;;3.95;;
24873;SDS011;12945;42.648;23.370;2023-06-04T02:56:33;7.55;;;4.18;;
24873;SDS011;12945;42.648;23.370;2023-06-04T02:58:58;6.03;;;3.78;;
24873;SDS011;12945;42.648;23.370;2023-06-04T03:01:26;5.38;;;3.70;;
24873;SDS011;12945;42.648;23.370;2023-06-04T03:03:52;4.97;;;4.10;;
24873;SDS011;12945;42.648;23.370;2023-06-04T03:06:19;7.95;;;3.70;;
24873;SDS011;12945;42.648;23.370;2023-06-04T03:08:45;6.63;;;3.78;;
24873;SDS011;12945;42.648;23.370;2023-06-04T03:11:11;5.88;;;3.97;;
24873;SDS011;12945;42.648;23.370;2023-06-04T03:13:37;10.73;;;4.50;;
24873;SDS011;12945;42.648;23.370;2023-06-04T03:16:09;4.35;;;3.67;;
24873;SDS011;12945;42.648;23.370;2023-06-04T03:18:38;6.28;;;3.97;;
24873;SDS011;12945;42.648;23.370;2023-06-04T03:21:09;9.00;;;4.43;;
24873;SDS011;12945;42.648;23.370;2023-06-04T03:23:36;4.28;;;3.60;;
24873;SDS011;12945;42.648;23.370;2023-06-04T03:26:03;7.70;;;4.57;;
24873;SDS011;12945;42.648;23.370;2023-06-04T03:28:30;6.60;;;4.38;;
24873;SDS011;12945;42.648;23.370;2023-06-04T03:31:01;4.30;;;3.67;;
24873;SDS011;12945;42.648;23.370;2023-06-04T03:33:27;7.65;;;4.10;;
24873;SDS011;12945;42.648;23.370;2023-06-04T03:35:52;5.35;;;3.70;;
24873;SDS011;12945;42.648;23.370;2023-06-04T03:38:18;4.13;;;3.42;;
24873;SDS011;12945;42.648;23.370;2023-06-04T03:40:49;6.05;;;3.58;;
24873;SDS011;12945;42.648;23.370;2023-06-04T03:43:14;5.85;;;3.83;;
24873;SDS011;12945;42.648;23.370;2023-06-04T03:45:42;5.03;;;3.67;;
24873;SDS011;12945;42.648;23.370;2023-06-04T03:48:07;8.50;;;4.10;;
24873;SDS011;12945;42.648;23.370;2023-06-04T03:50:37;8.18;;;4.13;;
24873;SDS011;12945;42.648;23.370;2023-06-04T03:53:02;4.88;;;3.67;;
24873;SDS011;12945;42.648;23.370;2023-06-04T03:55:30;4.50;;;3.75;;
24873;SDS011;12945;42.648;23.370;2023-06-04T03:57:57;6.90;;;3.63;;
24873;SDS011;12945;42.648;23.370;2023-06-04T04:00:26;4.78;;;3.85;;
24873;SDS011;12945;42.648;23.370;2023-06-04T04:02:51;6.10;;;3.88;;
24873;SDS011;12945;42.648;23.370;2023-06-04T04:05:27;6.90;;;4.00;;
24873;SDS011;12945;42.648;23.370;2023-06-04T04:07:52;5.13;;;4.07;;
24873;SDS011;12945;42.648;23.370;2023-06-04T04:10:22;5.82;;;4.07;;
24873;SDS011;12945;42.648;23.370;2023-06-04T04:12:47;4.68;;;4.13;;
24873;SDS011;12945;42.648;23.370;2023-06-04T04:17:43;7.60;;;3.85;;
24873;SDS011;12945;42.648;23.370;2023-06-04T04:20:09;6.43;;;4.30;;
24873;SDS011;12945;42.648;23.370;2023-06-04T04:22:35;7.70;;;4.40;;
24873;SDS011;12945;42.648;23.370;2023-06-04T04:25:00;7.43;;;4.20;;
24873;SDS011;12945;42.648;23.370;2023-06-04T04:27:27;7.00;;;4.53;;
24873;SDS011;12945;42.648;23.370;2023-06-04T04:29:55;7.35;;;4.50;;
24873;SDS011;12945;42.648;23.370;2023-06-04T04:32:25;6.05;;;4.55;;
24873;SDS011;12945;42.648;23.370;2023-06-04T04:34:50;7.80;;;4.80;;
24873;SDS011;12945;42.648;23.370;2023-06-04T04:37:20;10.07;;;4.67;;
24873;SDS011;12945;42.648;23.370;2023-06-04T04:39:46;7.25;;;5.00;;
24873;SDS011;12945;42.648;23.370;2023-06-04T04:42:14;7.55;;;4.60;;
24873;SDS011;12945;42.648;23.370;2023-06-04T04:44:39;9.30;;;5.03;;
24873;SDS011;12945;42.648;23.370;2023-06-04T04:47:07;9.68;;;5.22;;
24873;SDS011;12945;42.648;23.370;2023-06-04T04:49:32;6.78;;;4.88;;
24873;SDS011;12945;42.648;23.370;2023-06-04T04:51:57;8.68;;;4.95;;
24873;SDS011;12945;42.648;23.370;2023-06-04T04:54:22;5.85;;;4.60;;
24873;SDS011;12945;42.648;23.370;2023-06-04T04:56:50;8.98;;;4.75;;
24873;SDS011;12945;42.648;23.370;2023-06-04T04:59:15;5.68;;;4.57;;
24873;SDS011;12945;42.648;23.370;2023-06-04T05:01:46;6.78;;;4.50;;
24873;SDS011;12945;42.648;23.370;2023-06-04T05:04:11;7.43;;;5.00;;
24873;SDS011;12945;42.648;23.370;2023-06-04T05:06:37;10.15;;;4.47;;
24873;SDS011;12945;42.648;23.370;2023-06-04T05:09:02;8.00;;;5.10;;
24873;SDS011;12945;42.648;23.370;2023-06-04T05:11:29;11.27;;;5.70;;
24873;SDS011;12945;42.648;23.370;2023-06-04T05:13:55;8.10;;;4.90;;
24873;SDS011;12945;42.648;23.370;2023-06-04T05:16:20;5.47;;;4.72;;
24873;SDS011;12945;42.648;23.370;2023-06-04T05:18:47;10.07;;;5.20;;
24873;SDS011;12945;42.648;23.370;2023-06-04T05:21:15;8.32;;;5.13;;
24873;SDS011;12945;42.648;23.370;2023-06-04T05:23:41;9.52;;;5.63;;
24873;SDS011;12945;42.648;23.370;2023-06-04T05:26:07;7.05;;;4.90;;
24873;SDS011;12945;42.648;23.370;2023-06-04T05:28:32;10.60;;;5.50;;
24873;SDS011;12945;42.648;23.370;2023-06-04T05:30:58;6.88;;;5.15;;
24873;SDS011;12945;42.648;23.370;2023-06-04T05:33:27;9.85;;;5.53;;
24873;SDS011;12945;42.648;23.370;2023-06-04T05:35:55;8.30;;;5.57;;
24873;SDS011;12945;42.648;23.370;2023-06-04T05:38:22;13.15;;;5.68;;
24873;SDS011;12945;42.648;23.370;2023-06-04T05:43:18;9.25;;;5.40;;
24873;SDS011;12945;42.648;23.370;2023-06-04T05:45:44;10.38;;;5.90;;
24873;SDS011;12945;42.648;23.370;2023-06-04T05:48:10;10.18;;;6.07;;
24873;SDS011;12945;42.648;23.370;2023-06-04T05:50:35;10.13;;;5.95;;
24873;SDS011;12945;42.648;23.370;2023-06-04T05:53:00;10.68;;;6.20;;
24873;SDS011;12945;42.648;23.370;2023-06-04T05:55:26;9.32;;;6.00;;
24873;SDS011;12945;42.648;23.370;2023-06-04T05:57:54;11.57;;;6.25;;
24873;SDS011;12945;42.648;23.370;2023-06-04T06:00:20;17.23;;;6.07;;
24873;SDS011;12945;42.648;23.370;2023-06-04T06:02:49;10.85;;;6.28;;
24873;SDS011;12945;42.648;23.370;2023-06-04T06:05:15;11.80;;;6.35;;
24873;SDS011;12945;42.648;23.370;2023-06-04T06:07:40;9.85;;;6.85;;
24873;SDS011;12945;42.648;23.370;2023-06-04T06:10:06;10.65;;;6.68;;
24873;SDS011;12945;42.648;23.370;2023-06-04T06:12:37;10.73;;;6.22;;
24873;SDS011;12945;42.648;23.370;2023-06-04T06:15:03;9.68;;;6.40;;
24873;SDS011;12945;42.648;23.370;2023-06-04T06:17:31;9.93;;;6.40;;
24873;SDS011;12945;42.648;23.370;2023-06-04T06:19:57;12.55;;;6.28;;
24873;SDS011;12945;42.648;23.370;2023-06-04T06:22:24;10.25;;;6.20;;
24873;SDS011;12945;42.648;23.370;2023-06-04T06:24:49;10.82;;;5.93;;
24873;SDS011;12945;42.648;23.370;2023-06-04T06:27:21;7.22;;;5.13;;
24873;SDS011;12945;42.648;23.370;2023-06-04T06:29:46;11.25;;;5.72;;
24873;SDS011;12945;42.648;23.370;2023-06-04T06:32:12;8.63;;;4.88;;
24873;SDS011;12945;42.648;23.370;2023-06-04T06:34:38;9.15;;;5.18;;
24873;SDS011;12945;42.648;23.370;2023-06-04T06:37:06;13.07;;;5.82;;
24873;SDS011;12945;42.648;23.370;2023-06-04T06:39:31;10.85;;;6.15;;
24873;SDS011;12945;42.648;23.370;2023-06-04T06:41:57;10.32;;;5.20;;
24873;SDS011;12945;42.648;23.370;2023-06-04T06:44:22;10.85;;;6.28;;
24873;SDS011;12945;42.648;23.370;2023-06-04T06:46:51;12.18;;;5.95;;
24873;SDS011;12945;42.648;23.370;2023-06-04T06:49:16;10.57;;;5.55;;
24873;SDS011;12945;42.648;23.370;2023-06-04T06:51:42;8.25;;;5.68;;
24873;SDS011;12945;42.648;23.370;2023-06-04T06:54:08;8.63;;;5.47;;
24873;SDS011;12945;42.648;23.370;2023-06-04T06:56:33;14.93;;;5.65;;
24873;SDS011;12945;42.648;23.370;2023-06-04T06:58:59;11.95;;;5.65;;
24873;SDS011;12945;42.648;23.370;2023-06-04T07:01:25;8.45;;;6.28;;
24873;SDS011;12945;42.648;23.370;2023-06-04T07:03:51;7.22;;;4.93;;
24873;SDS011;12945;42.648;23.370;2023-06-04T07:06:18;9.07;;;6.00;;
24873;SDS011;12945;42.648;23.370;2023-06-04T07:08:44;8.70;;;5.57;;
24873;SDS011;12945;42.648;23.370;2023-06-04T07:11:09;9.02;;;5.53;;
24873;SDS011;12945;42.648;23.370;2023-06-04T07:13:40;10.07;;;5.60;;
24873;SDS011;12945;42.648;23.370;2023-06-04T07:16:07;8.88;;;5.45;;
24873;SDS011;12945;42.648;23.370;2023-06-04T07:18:32;10.82;;;5.63;;
24873;SDS011;12945;42.648;23.370;2023-06-04T07:20:58;8.40;;;5.32;;
24873;SDS011;12945;42.648;23.370;2023-06-04T07:23:23;8.23;;;5.47;;
24873;SDS011;12945;42.648;23.370;2023-06-04T07:25:48;12.90;;;6.25;;
24873;SDS011;12945;42.648;23.370;2023-06-04T07:28:14;13.65;;;6.70;;
24873;SDS011;12945;42.648;23.370;2023-06-04T07:30:40;10.50;;;6.65;;
24873;SDS011;12945;42.648;23.370;2023-06-04T07:33:05;11.15;;;6.25;;
24873;SDS011;12945;42.648;23.370;2023-06-04T07:35:31;8.23;;;5.97;;
24873;SDS011;12945;42.648;23.370;2023-06-04T07:37:58;9.18;;;5.78;;
24873;SDS011;12945;42.648;23.370;2023-06-04T07:40:24;7.88;;;5.40;;
24873;SDS011;12945;42.648;23.370;2023-06-04T07:42:50;9.25;;;5.63;;
24873;SDS011;12945;42.648;23.370;2023-06-04T07:45:16;11.95;;;6.28;;
24873;SDS011;12945;42.648;23.370;2023-06-04T07:47:42;13.13;;;6.53;;
24873;SDS011;12945;42.648;23.370;2023-06-04T07:50:07;12.57;;;6.22;;
24873;SDS011;12945;42.648;23.370;2023-06-04T07:52:36;10.25;;;5.75;;
24873;SDS011;12945;42.648;23.370;2023-06-04T07:55:02;10.45;;;6.35;;
24873;SDS011;12945;42.648;23.370;2023-06-04T07:57:28;8.35;;;5.97;;
24873;SDS011;12945;42.648;23.370;2023-06-04T07:59:53;12.30;;;6.20;;
24873;SDS011;12945;42.648;23.370;2023-06-04T08:02:19;13.45;;;6.93;;
24873;SDS011;12945;42.648;23.370;2023-06-04T08:04:44;9.70;;;6.55;;
24873;SDS011;12945;42.648;23.370;2023-06-04T08:07:10;13.32;;;5.85;;
24873;SDS011;12945;42.648;23.370;2023-06-04T08:09:35;11.00;;;6.43;;
24873;SDS011;12945;42.648;23.370;2023-06-04T08:12:01;10.00;;;6.00;;
24873;SDS011;12945;42.648;23.370;2023-06-04T08:14:26;10.88;;;6.43;;
24873;SDS011;12945;42.648;23.370;2023-06-04T08:16:57;10.85;;;6.50;;
24873;SDS011;12945;42.648;23.370;2023-06-04T08:19:22;10.85;;;7.38;;
24873;SDS011;12945;42.648;23.370;2023-06-04T08:21:50;14.65;;;7.38;;
24873;SDS011;12945;42.648;23.370;2023-06-04T08:24:15;13.32;;;8.15;;
24873;SDS011;12945;42.648;23.370;2023-06-04T08:26:41;9.73;;;7.32;;
24873;SDS011;12945;42.648;23.370;2023-06-04T08:29:06;10.20;;;6.60;;
24873;SDS011;12945;42.648;23.370;2023-06-04T08:31:32;14.88;;;7.72;;
24873;SDS011;12945;42.648;23.370;2023-06-04T08:33:58;21.58;;;11.63;;
24873;SDS011;12945;42.648;23.370;2023-06-04T08:36:23;11.18;;;7.60;;
24873;SDS011;12945;42.648;23.370;2023-06-04T08:38:49;12.98;;;7.55;;
24873;SDS011;12945;42.648;23.370;2023-06-04T08:41:24;11.63;;;7.45;;
24873;SDS011;12945;42.648;23.370;2023-06-04T08:43:51;10.23;;;6.95;;
24873;SDS011;12945;42.648;23.370;2023-06-04T08:46:18;12.55;;;7.47;;
24873;SDS011;12945;42.648;23.370;2023-06-04T08:48:44;14.25;;;7.72;;
24873;SDS011;12945;42.648;23.370;2023-06-04T08:51:10;11.88;;;6.65;;
24873;SDS011;12945;42.648;23.370;2023-06-04T08:53:36;13.95;;;7.63;;
24873;SDS011;12945;42.648;23.370;2023-06-04T08:56:01;13.85;;;7.50;;
24873;SDS011;12945;42.648;23.370;2023-06-04T08:58:27;13.38;;;7.97;;
24873;SDS011;12945;42.648;23.370;2023-06-04T09:00:55;10.27;;;7.30;;
24873;SDS011;12945;42.648;23.370;2023-06-04T09:03:24;11.18;;;7.38;;
24873;SDS011;12945;42.648;23.370;2023-06-04T09:05:51;11.65;;;7.30;;
24873;SDS011;12945;42.648;23.370;2023-06-04T09:08:20;12.05;;;7.40;;
24873;SDS011;12945;42.648;23.370;2023-06-04T09:10:46;12.70;;;7.50;;
24873;SDS011;12945;42.648;23.370;2023-06-04T09:13:14;12.93;;;6.82;;
24873;SDS011;12945;42.648;23.370;2023-06-04T09:15:41;10.98;;;7.07;;
24873;SDS011;12945;42.648;23.370;2023-06-04T09:18:06;12.15;;;7.00;;
24873;SDS011;12945;42.648;23.370;2023-06-04T09:20:31;13.32;;;7.55;;
24873;SDS011;12945;42.648;23.370;2023-06-04T09:22:58;11.45;;;7.18;;
24873;SDS011;12945;42.648;23.370;2023-06-04T09:25:24;10.25;;;7.25;;
24873;SDS011;12945;42.648;23.370;2023-06-04T09:27:53;16.00;;;7.72;;
24873;SDS011;12945;42.648;23.370;2023-06-04T09:30:20;13.88;;;7.78;;
24873;SDS011;12945;42.648;23.370;2023-06-04T09:32:46;15.00;;;8.00;;
24873;SDS011;12945;42.648;23.370;2023-06-04T09:35:16;14.68;;;8.02;;
24873;SDS011;12945;42.648;23.370;2023-06-04T09:38:05;13.15;;;8.75;;
24873;SDS011;12945;42.648;23.370;2023-06-04T09:40:36;18.98;;;9.40;;
24873;SDS011;12945;42.648;23.370;2023-06-04T09:43:02;11.05;;;8.43;;
24873;SDS011;12945;42.648;23.370;2023-06-04T09:45:31;12.90;;;8.50;;
24873;SDS011;12945;42.648;23.370;2023-06-04T09:50:30;11.93;;;9.07;;
24873;SDS011;12945;42.648;23.370;2023-06-04T09:52:58;11.05;;;7.93;;
24873;SDS011;12945;42.648;23.370;2023-06-04T09:55:23;14.88;;;8.90;;
24873;SDS011;12945;42.648;23.370;2023-06-04T09:57:49;16.73;;;8.00;;
24873;SDS011;12945;42.648;23.370;2023-06-04T10:00:18;14.10;;;8.35;;
24873;SDS011;12945;42.648;23.370;2023-06-04T10:02:45;12.07;;;7.40;;
24873;SDS011;12945;42.648;23.370;2023-06-04T10:05:11;10.18;;;7.32;;
24873;SDS011;12945;42.648;23.370;2023-06-04T10:07:45;14.60;;;7.50;;
24873;SDS011;12945;42.648;23.370;2023-06-04T10:10:11;11.90;;;7.20;;
24873;SDS011;12945;42.648;23.370;2023-06-04T10:12:38;11.50;;;7.13;;
24873;SDS011;12945;42.648;23.370;2023-06-04T10:15:11;9.98;;;6.88;;
24873;SDS011;12945;42.648;23.370;2023-06-04T10:17:39;13.85;;;7.28;;
24873;SDS011;12945;42.648;23.370;2023-06-04T10:20:09;11.82;;;6.32;;
24873;SDS011;12945;42.648;23.370;2023-06-04T10:25:05;10.77;;;5.83;;
24873;SDS011;12945;42.648;23.370;2023-06-04T10:27:33;11.05;;;7.10;;
24873;SDS011;12945;42.648;23.370;2023-06-04T10:30:00;11.00;;;6.18;;
24873;SDS011;12945;42.648;23.370;2023-06-04T10:34:57;12.75;;;6.63;;
24873;SDS011;12945;42.648;23.370;2023-06-04T10:37:33;13.73;;;7.07;;
24873;SDS011;12945;42.648;23.370;2023-06-04T10:39:58;8.35;;;6.38;;
24873;SDS011;12945;42.648;23.370;2023-06-04T10:42:24;11.77;;;6.13;;
24873;SDS011;12945;42.648;23.370;2023-06-04T10:44:53;11.77;;;6.53;;
24873;SDS011;12945;42.648;23.370;2023-06-04T10:47:20;11.47;;;6.83;;
24873;SDS011;12945;42.648;23.370;2023-06-04T10:49:46;11.57;;;6.90;;
24873;SDS011;12945;42.648;23.370;2023-06-04T10:52:12;8.70;;;6.32;;
24873;SDS011;12945;42.648;23.370;2023-06-04T10:54:37;11.40;;;6.20;;
24873;SDS011;12945;42.648;23.370;2023-06-04T10:57:13;10.73;;;6.43;;
24873;SDS011;12945;42.648;23.370;2023-06-04T10:59:38;12.82;;;6.72;;
24873;SDS011;12945;42.648;23.370;2023-06-04T11:02:04;10.50;;;6.70;;
24873;SDS011;12945;42.648;23.370;2023-06-04T11:04:30;11.18;;;6.18;;
24873;SDS011;12945;42.648;23.370;2023-06-04T11:07:05;8.45;;;6.47;;
24873;SDS011;12945;42.648;23.370;2023-06-04T11:09:37;9.05;;;7.13;;
24873;SDS011;12945;42.648;23.370;2023-06-04T11:12:06;7.68;;;6.22;;
24873;SDS011;12945;42.648;23.370;2023-06-04T11:14:31;7.68;;;6.30;;
24873;SDS011;12945;42.648;23.370;2023-06-04T11:16:56;11.35;;;7.07;;
24873;SDS011;12945;42.648;23.370;2023-06-04T11:19:22;14.85;;;8.25;;
24873;SDS011;12945;42.648;23.370;2023-06-04T11:21:47;9.25;;;6.45;;
24873;SDS011;12945;42.648;23.370;2023-06-04T11:24:13;13.85;;;6.70;;
24873;SDS011;12945;42.648;23.370;2023-06-04T11:26:38;13.00;;;6.88;;
24873;SDS011;12945;42.648;23.370;2023-06-04T11:29:08;9.13;;;7.00;;
24873;SDS011;12945;42.648;23.370;2023-06-04T11:31:42;10.15;;;6.60;;
24873;SDS011;12945;42.648;23.370;2023-06-04T11:34:08;11.48;;;7.28;;
24873;SDS011;12945;42.648;23.370;2023-06-04T11:36:34;10.70;;;6.80;;
24873;SDS011;12945;42.648;23.370;2023-06-04T11:39:01;10.80;;;7.10;;
24873;SDS011;12945;42.648;23.370;2023-06-04T11:41:27;11.55;;;7.38;;
24873;SDS011;12945;42.648;23.370;2023-06-04T11:43:53;7.45;;;6.75;;
24873;SDS011;12945;42.648;23.370;2023-06-04T11:46:18;9.93;;;6.93;;
24873;SDS011;12945;42.648;23.370;2023-06-04T11:48:45;12.02;;;7.30;;
24873;SDS011;12945;42.648;23.370;2023-06-04T11:51:10;8.82;;;6.65;;
24873;SDS011;12945;42.648;23.370;2023-06-04T11:53:37;9.23;;;6.95;;
24873;SDS011;12945;42.648;23.370;2023-06-04T11:56:03;11.45;;;7.43;;
24873;SDS011;12945;42.648;23.370;2023-06-04T11:58:29;13.40;;;7.47;;
24873;SDS011;12945;42.648;23.370;2023-06-04T12:00:55;13.15;;;7.50;;
24873;SDS011;12945;42.648;23.370;2023-06-04T12:03:31;9.77;;;6.85;;
24873;SDS011;12945;42.648;23.370;2023-06-04T12:05:57;9.68;;;7.32;;
24873;SDS011;12945;42.648;23.370;2023-06-04T12:08:22;12.97;;;7.23;;
24873;SDS011;12945;42.648;23.370;2023-06-04T12:10:50;12.35;;;7.55;;
24873;SDS011;12945;42.648;23.370;2023-06-04T12:13:16;11.70;;;7.63;;
24873;SDS011;12945;42.648;23.370;2023-06-04T12:15:41;11.40;;;7.43;;
24873;SDS011;12945;42.648;23.370;2023-06-04T12:18:07;10.50;;;7.90;;
24873;SDS011;12945;42.648;23.370;2023-06-04T12:22:57;13.35;;;8.23;;
24873;SDS011;12945;42.648;23.370;2023-06-04T12:25:26;11.75;;;7.95;;
24873;SDS011;12945;42.648;23.370;2023-06-04T12:27:53;14.33;;;7.47;;
24873;SDS011;12945;42.648;23.370;2023-06-04T12:30:18;9.57;;;7.95;;
24873;SDS011;12945;42.648;23.370;2023-06-04T12:32:44;14.88;;;8.13;;
24873;SDS011;12945;42.648;23.370;2023-06-04T12:35:10;10.23;;;7.70;;
24873;SDS011;12945;42.648;23.370;2023-06-04T12:37:35;13.73;;;8.07;;
24873;SDS011;12945;42.648;23.370;2023-06-04T12:40:01;10.18;;;7.53;;
24873;SDS011;12945;42.648;23.370;2023-06-04T12:42:26;10.65;;;7.80;;
24873;SDS011;12945;42.648;23.370;2023-06-04T12:44:53;16.30;;;7.80;;
24873;SDS011;12945;42.648;23.370;2023-06-04T12:47:18;9.93;;;7.50;;
24873;SDS011;12945;42.648;23.370;2023-06-04T12:49:44;9.45;;;7.55;;
24873;SDS011;12945;42.648;23.370;2023-06-04T12:52:09;11.05;;;6.95;;
24873;SDS011;12945;42.648;23.370;2023-06-04T12:54:35;10.15;;;7.50;;
24873;SDS011;12945;42.648;23.370;2023-06-04T12:57:00;9.32;;;7.70;;
24873;SDS011;12945;42.648;23.370;2023-06-04T12:59:26;12.85;;;7.55;;
24873;SDS011;12945;42.648;23.370;2023-06-04T13:01:52;11.23;;;7.05;;
24873;SDS011;12945;42.648;23.370;2023-06-04T13:04:17;17.92;;;7.90;;
24873;SDS011;12945;42.648;23.370;2023-06-04T13:06:43;16.30;;;7.00;;
24873;SDS011;12945;42.648;23.370;2023-06-04T13:09:10;11.20;;;7.38;;
24873;SDS011;12945;42.648;23.370;2023-06-04T13:11:39;13.07;;;7.40;;
24873;SDS011;12945;42.648;23.370;2023-06-04T13:14:06;11.23;;;7.25;;
24873;SDS011;12945;42.648;23.370;2023-06-04T13:16:32;12.23;;;6.72;;
24873;SDS011;12945;42.648;23.370;2023-06-04T13:18:57;13.88;;;6.72;;
24873;SDS011;12945;42.648;23.370;2023-06-04T13:21:22;8.80;;;6.25;;
24873;SDS011;12945;42.648;23.370;2023-06-04T13:23:48;10.15;;;6.35;;
24873;SDS011;12945;42.648;23.370;2023-06-04T13:26:14;9.80;;;6.93;;
24873;SDS011;12945;42.648;23.370;2023-06-04T13:28:40;13.10;;;6.28;;
24873;SDS011;12945;42.648;23.370;2023-06-04T13:31:05;15.77;;;6.55;;
24873;SDS011;12945;42.648;23.370;2023-06-04T13:33:30;8.63;;;6.40;;
24873;SDS011;12945;42.648;23.370;2023-06-04T13:35:56;13.52;;;7.68;;
24873;SDS011;12945;42.648;23.370;2023-06-04T13:38:21;15.15;;;7.07;;
24873;SDS011;12945;42.648;23.370;2023-06-04T13:40:46;9.05;;;6.60;;
24873;SDS011;12945;42.648;23.370;2023-06-04T13:43:12;8.65;;;6.65;;
24873;SDS011;12945;42.648;23.370;2023-06-04T13:45:37;7.65;;;6.05;;
24873;SDS011;12945;42.648;23.370;2023-06-04T13:48:05;12.02;;;6.30;;
24873;SDS011;12945;42.648;23.370;2023-06-04T13:50:32;10.52;;;6.10;;
24873;SDS011;12945;42.648;23.370;2023-06-04T13:52:57;10.55;;;6.65;;
24873;SDS011;12945;42.648;23.370;2023-06-04T13:55:22;10.43;;;6.28;;
24873;SDS011;12945;42.648;23.370;2023-06-04T13:57:48;14.40;;;6.65;;
24873;SDS011;12945;42.648;23.370;2023-06-04T14:00:13;12.02;;;6.70;;
24873;SDS011;12945;42.648;23.370;2023-06-04T14:02:39;15.15;;;7.13;;
24873;SDS011;12945;42.648;23.370;2023-06-04T14:05:04;12.20;;;6.60;;
24873;SDS011;12945;42.648;23.370;2023-06-04T14:07:29;9.68;;;6.65;;
24873;SDS011;12945;42.648;23.370;2023-06-04T14:09:55;10.00;;;6.82;;
24873;SDS011;12945;42.648;23.370;2023-06-04T14:12:25;10.80;;;7.15;;
24873;SDS011;12945;42.648;23.370;2023-06-04T14:14:51;10.55;;;7.00;;
24873;SDS011;12945;42.648;23.370;2023-06-04T14:17:16;8.68;;;7.03;;
24873;SDS011;12945;42.648;23.370;2023-06-04T14:19:42;10.95;;;7.35;;
24873;SDS011;12945;42.648;23.370;2023-06-04T14:22:07;10.48;;;7.35;;
24873;SDS011;12945;42.648;23.370;2023-06-04T14:24:32;13.80;;;7.35;;
24873;SDS011;12945;42.648;23.370;2023-06-04T14:26:58;8.52;;;6.75;;
24873;SDS011;12945;42.648;23.370;2023-06-04T14:29:23;11.05;;;7.22;;
24873;SDS011;12945;42.648;23.370;2023-06-04T14:31:48;11.75;;;6.82;;
24873;SDS011;12945;42.648;23.370;2023-06-04T14:34:14;10.35;;;7.13;;
24873;SDS011;12945;42.648;23.370;2023-06-04T14:36:39;10.75;;;7.30;;
24873;SDS011;12945;42.648;23.370;2023-06-04T14:39:05;8.30;;;7.05;;
24873;SDS011;12945;42.648;23.370;2023-06-04T14:41:30;10.40;;;7.88;;
24873;SDS011;12945;42.648;23.370;2023-06-04T14:43:56;12.73;;;6.95;;
24873;SDS011;12945;42.648;23.370;2023-06-04T14:46:22;9.30;;;7.32;;
24873;SDS011;12945;42.648;23.370;2023-06-04T14:48:49;8.70;;;7.22;;
24873;SDS011;12945;42.648;23.370;2023-06-04T14:51:17;11.83;;;6.43;;
24873;SDS011;12945;42.648;23.370;2023-06-04T14:53:43;9.93;;;7.22;;